Time;durP1;ratioP1;P1;durP2;ratioP2;P2;SDS_P1;SDS_P2;PMS_P1;PMS_P2;Temp;Humidity;BMP_temperature;BMP_pressure;BME280_temperature;BME280_humidity;BME280_pressure;Samples;Min_cycle;Max_cycle;Signal;HPM_P1;HPM_P2
2021/10/04 00:00:31;;;;;;;5.60;3.30;;;11.80;99.90;;;;;;4993706;28;20125;-51
2021/10/04 00:03:01;;;;;;;6.88;2.72;;;11.80;99.90;;;;;;5009961;28;20031;-50
2021/10/04 00:05:27;;;;;;;9.27;3.42;;;11.80;99.90;;;;;;5001592;28;20116;-51
2021/10/04 00:07:53;;;;;;;7.00;3.35;;;11.70;99.90;;;;;;5005366;28;20121;-52
2021/10/04 00:10:19;;;;;;;11.80;3.83;;;11.80;99.90;;;;;;5011672;28;20041;-50
2021/10/04 00:12:46;;;;;;;9.00;3.38;;;11.80;99.90;;;;;;5008177;28;20116;-49
2021/10/04 00:15:13;;;;;;;8.32;3.33;;;11.80;99.90;;;;;;5009741;28;20486;-51
2021/10/04 00:17:40;;;;;;;8.43;3.08;;;11.80;99.90;;;;;;5010093;28;20038;-55
2021/10/04 00:20:08;;;;;;;9.73;3.42;;;11.80;99.90;;;;;;5004382;28;20034;-49
2021/10/04 00:22:34;;;;;;;6.80;3.00;;;11.80;99.90;;;;;;5007129;28;20037;-50
2021/10/04 00:25:00;;;;;;;9.20;3.63;;;11.80;99.90;;;;;;5003728;28;20034;-53
2021/10/04 00:27:26;;;;;;;8.77;3.25;;;11.80;99.90;;;;;;5005671;28;20100;-51
2021/10/04 00:29:52;;;;;;;8.52;3.10;;;11.80;99.90;;;;;;5007461;28;20513;-50
2021/10/04 00:32:21;;;;;;;8.88;2.97;;;11.80;99.90;;;;;;5011038;28;20033;-52
2021/10/04 00:34:48;;;;;;;8.00;3.13;;;11.80;99.90;;;;;;5012155;28;20060;-49
2021/10/04 00:37:15;;;;;;;7.60;3.47;;;11.80;99.90;;;;;;4994263;28;20034;-51
2021/10/04 00:39:41;;;;;;;8.88;3.30;;;11.80;99.90;;;;;;4996255;28;20045;-51
2021/10/04 00:42:07;;;;;;;9.25;3.13;;;11.80;99.90;;;;;;5012150;28;20034;-50
2021/10/04 00:44:33;;;;;;;8.20;3.03;;;11.70;99.90;;;;;;5011540;28;20084;-52
2021/10/04 00:47:03;;;;;;;14.15;3.85;;;11.80;99.90;;;;;;5012891;28;20046;-53
2021/10/04 00:49:29;;;;;;;7.68;3.63;;;11.70;99.90;;;;;;5013750;28;20416;-50
2021/10/04 00:51:55;;;;;;;8.20;3.20;;;11.80;99.90;;;;;;5011172;28;20042;-52
2021/10/04 00:54:20;;;;;;;6.70;3.45;;;11.80;99.90;;;;;;5005315;28;20117;-51
2021/10/04 00:56:46;;;;;;;7.38;3.20;;;11.70;99.90;;;;;;5010030;28;20049;-52
2021/10/04 00:59:11;;;;;;;7.07;3.05;;;11.70;99.90;;;;;;5008628;28;20033;-52
2021/10/04 01:01:37;;;;;;;8.23;3.35;;;11.70;99.90;;;;;;5013932;28;20182;-50
2021/10/04 01:04:05;;;;;;;8.50;3.35;;;11.70;99.90;;;;;;5007994;28;20121;-52
2021/10/04 01:06:31;;;;;;;7.20;3.25;;;11.70;99.90;;;;;;4987449;28;20402;-50
2021/10/04 01:08:57;;;;;;;9.57;3.40;;;11.70;99.90;;;;;;5013159;28;20046;-50
2021/10/04 01:11:23;;;;;;;7.63;3.33;;;11.70;99.90;;;;;;5002529;28;20459;-48
2021/10/04 01:13:49;;;;;;;7.57;3.53;;;11.70;99.90;;;;;;5010553;28;20120;-49
2021/10/04 01:16:15;;;;;;;6.15;3.25;;;11.70;99.90;;;;;;5009827;28;20049;-51
2021/10/04 01:18:42;;;;;;;6.53;2.83;;;11.70;99.90;;;;;;5006560;28;20030;-49
2021/10/04 01:21:07;;;;;;;8.80;3.17;;;11.70;99.90;;;;;;5006931;28;20541;-50
2021/10/04 01:23:34;;;;;;;5.75;3.13;;;11.70;99.90;;;;;;5009808;28;20066;-52
2021/10/04 01:26:00;;;;;;;7.40;3.20;;;11.70;99.90;;;;;;5014295;28;20125;-54
2021/10/04 01:28:27;;;;;;;8.00;3.15;;;11.70;99.90;;;;;;5014828;28;20038;-54
2021/10/04 01:30:53;;;;;;;6.38;2.90;;;11.70;99.90;;;;;;5014346;28;20049;-53
2021/10/04 01:33:19;;;;;;;8.18;3.30;;;11.70;99.90;;;;;;5014206;28;20037;-51
2021/10/04 01:35:44;;;;;;;8.85;3.25;;;11.70;99.90;;;;;;4997056;28;20053;-52
2021/10/04 01:38:10;;;;;;;8.38;3.03;;;11.70;99.90;;;;;;5015864;28;20034;-52
2021/10/04 01:40:38;;;;;;;9.32;3.05;;;11.60;99.90;;;;;;5013712;28;20038;-51
2021/10/04 01:43:04;;;;;;;6.93;2.67;;;11.70;99.90;;;;;;5013620;28;20034;-52
2021/10/04 01:45:29;;;;;;;8.95;3.55;;;11.70;99.90;;;;;;5014287;28;20088;-53
2021/10/04 01:47:59;;;;;;;6.22;2.88;;;11.70;99.90;;;;;;5010266;28;20069;-54
2021/10/04 01:50:26;;;;;;;5.90;2.75;;;11.70;99.90;;;;;;5006992;28;20049;-51
2021/10/04 01:52:51;;;;;;;7.57;3.08;;;11.70;99.90;;;;;;5011740;28;20048;-53
2021/10/04 01:55:17;;;;;;;8.60;3.13;;;11.70;99.90;;;;;;5015552;28;20117;-52
2021/10/04 01:57:43;;;;;;;5.97;3.03;;;11.70;99.90;;;;;;5013262;28;20406;-54
2021/10/04 02:00:12;;;;;;;6.50;2.45;;;11.60;99.90;;;;;;5014658;28;20046;-51
2021/10/04 02:02:40;;;;;;;6.63;2.70;;;11.60;99.90;;;;;;5009930;28;20038;-54
2021/10/04 02:05:07;;;;;;;6.80;2.83;;;11.60;99.90;;;;;;5011999;28;20069;-54
2021/10/04 02:07:37;;;;;;;9.10;2.70;;;11.60;99.90;;;;;;5010379;28;20086;-50
2021/10/04 02:10:13;;;;;;;6.80;2.40;;;11.60;99.90;;;;;;5012111;28;20063;-54
2021/10/04 02:12:43;;;;;;;6.30;2.60;;;11.60;99.90;;;;;;5011361;28;20078;-50
2021/10/04 02:15:10;;;;;;;8.02;2.78;;;11.70;99.90;;;;;;5011373;28;20124;-53
2021/10/04 02:17:36;;;;;;;4.15;2.30;;;11.60;99.90;;;;;;5010289;28;20037;-50
2021/10/04 02:20:09;;;;;;;4.38;2.20;;;11.70;99.90;;;;;;5011461;28;20049;-52
2021/10/04 02:22:35;;;;;;;9.82;2.78;;;11.60;99.90;;;;;;4996031;28;20042;-53
2021/10/04 02:25:01;;;;;;;6.60;2.70;;;11.60;99.90;;;;;;5012542;28;20030;-55
2021/10/04 02:27:26;;;;;;;8.23;2.97;;;11.60;99.90;;;;;;5014018;28;20041;-54
2021/10/04 02:29:52;;;;;;;6.60;2.65;;;11.60;99.90;;;;;;5009792;28;20042;-55
2021/10/04 02:32:18;;;;;;;5.90;2.40;;;11.60;99.90;;;;;;4997447;28;20367;-54
2021/10/04 02:34:43;;;;;;;6.53;2.30;;;11.60;99.90;;;;;;5012627;28;20026;-54
2021/10/04 02:37:09;;;;;;;6.45;2.08;;;11.60;99.90;;;;;;5010387;28;20368;-54
2021/10/04 02:39:35;;;;;;;5.97;2.20;;;11.60;99.90;;;;;;5009365;28;20040;-51
2021/10/04 02:42:05;;;;;;;5.80;2.30;;;11.60;99.90;;;;;;5010716;28;20046;-53
2021/10/04 02:44:31;;;;;;;7.80;3.22;;;11.60;99.90;;;;;;5003460;28;20046;-54
2021/10/04 02:46:57;;;;;;;6.25;2.60;;;11.60;99.90;;;;;;5006561;28;20598;-53
2021/10/04 02:49:23;;;;;;;4.75;2.20;;;11.60;99.90;;;;;;5012742;28;20042;-51
2021/10/04 02:51:49;;;;;;;6.68;2.40;;;11.60;99.90;;;;;;5001499;28;20080;-50
2021/10/04 02:54:15;;;;;;;4.30;2.10;;;11.60;99.90;;;;;;4978790;28;20084;-53
2021/10/04 02:56:40;;;;;;;11.07;2.47;;;11.60;99.90;;;;;;5008144;28;20038;-54
2021/10/04 02:59:06;;;;;;;7.72;2.13;;;11.60;99.90;;;;;;5008248;28;20447;-53
2021/10/04 03:01:32;;;;;;;4.95;2.38;;;11.60;99.90;;;;;;5007647;28;20142;-52
2021/10/04 03:03:57;;;;;;;9.02;2.13;;;11.60;99.90;;;;;;5011631;28;20471;-53
2021/10/04 03:06:23;;;;;;;6.30;2.60;;;11.60;99.90;;;;;;5012840;28;20466;-52
2021/10/04 03:08:48;;;;;;;10.90;2.42;;;11.60;99.90;;;;;;5011513;28;20514;-52
2021/10/04 03:11:14;;;;;;;6.13;2.30;;;11.60;99.90;;;;;;5013473;28;20040;-54
2021/10/04 03:13:39;;;;;;;5.50;1.90;;;11.60;99.90;;;;;;5012461;28;20108;-52
2021/10/04 03:16:05;;;;;;;7.90;2.40;;;11.50;99.90;;;;;;5011313;28;20033;-53
2021/10/04 03:18:31;;;;;;;6.28;2.15;;;11.60;99.90;;;;;;5007429;28;20052;-54
2021/10/04 03:20:57;;;;;;;6.93;2.13;;;11.50;99.90;;;;;;5008410;28;20080;-53
2021/10/04 03:23:25;;;;;;;3.95;2.17;;;11.50;99.90;;;;;;5013114;28;20041;-52
2021/10/04 03:25:50;;;;;;;8.10;2.53;;;11.50;99.90;;;;;;5004353;28;20403;-54
2021/10/04 03:28:17;;;;;;;6.10;1.92;;;11.50;99.90;;;;;;5011853;28;20034;-53
2021/10/04 03:30:43;;;;;;;4.93;1.95;;;11.60;99.90;;;;;;5008100;28;20049;-53
2021/10/04 03:33:09;;;;;;;5.60;2.08;;;11.50;99.90;;;;;;5013641;28;20042;-52
2021/10/04 03:35:35;;;;;;;5.57;1.90;;;11.50;99.90;;;;;;5010868;28;20045;-52
2021/10/04 03:38:00;;;;;;;6.43;2.00;;;11.50;99.90;;;;;;5007413;28;20450;-54
2021/10/04 03:40:26;;;;;;;8.70;2.10;;;11.50;99.90;;;;;;5007724;28;20364;-51
2021/10/04 03:42:52;;;;;;;7.50;2.28;;;11.60;99.90;;;;;;5005479;28;20068;-49
2021/10/04 03:45:18;;;;;;;8.30;2.17;;;11.60;99.90;;;;;;4995339;28;20067;-51
2021/10/04 03:47:44;;;;;;;5.60;2.17;;;11.50;99.90;;;;;;4989631;28;20061;-52
2021/10/04 03:50:11;;;;;;;4.35;1.80;;;11.50;99.90;;;;;;5008529;28;20037;-51
2021/10/04 03:52:38;;;;;;;8.38;2.97;;;11.60;99.90;;;;;;5009002;28;20038;-51
2021/10/04 03:55:05;;;;;;;8.82;2.20;;;11.50;99.90;;;;;;5002436;28;20034;-49
2021/10/04 03:57:32;;;;;;;8.23;2.13;;;11.50;99.90;;;;;;5011266;28;20045;-49
2021/10/04 03:59:57;;;;;;;8.13;2.30;;;11.60;99.90;;;;;;5011057;28;20042;-50
2021/10/04 04:02:23;;;;;;;4.70;2.05;;;11.60;99.90;;;;;;5004940;28;20041;-49
2021/10/04 04:04:48;;;;;;;5.07;1.98;;;11.60;99.90;;;;;;5011461;28;20048;-49
2021/10/04 04:07:14;;;;;;;8.32;2.50;;;11.60;99.90;;;;;;5011308;28;20034;-49
2021/10/04 04:09:39;;;;;;;6.53;2.00;;;11.60;99.90;;;;;;5010126;28;20042;-51
2021/10/04 04:12:05;;;;;;;9.13;2.30;;;11.60;99.90;;;;;;5009432;28;20042;-49
2021/10/04 04:14:32;;;;;;;4.18;2.00;;;11.50;99.90;;;;;;4994687;28;20038;-50
2021/10/04 04:16:58;;;;;;;10.27;2.15;;;11.60;99.90;;;;;;5008322;28;20042;-52
2021/10/04 04:19:23;;;;;;;6.35;2.30;;;11.50;99.90;;;;;;5010582;28;20052;-50
2021/10/04 04:21:53;;;;;;;7.45;2.05;;;11.50;99.90;;;;;;5007991;28;20034;-49
2021/10/04 04:24:19;;;;;;;7.53;2.25;;;11.50;99.90;;;;;;4995786;28;20038;-49
2021/10/04 04:26:46;;;;;;;5.55;1.90;;;11.50;99.90;;;;;;5011129;28;20038;-49
2021/10/04 04:29:12;;;;;;;5.10;1.90;;;11.50;99.90;;;;;;5005344;28;20038;-49
2021/10/04 04:31:38;;;;;;;8.85;1.80;;;11.50;99.90;;;;;;5009850;28;20430;-49
2021/10/04 04:34:04;;;;;;;3.50;1.80;;;11.50;99.90;;;;;;5008290;28;20053;-51
2021/10/04 04:36:32;;;;;;;6.15;2.08;;;11.60;99.90;;;;;;5010669;28;20037;-51
2021/10/04 04:38:57;;;;;;;7.53;2.20;;;11.50;99.90;;;;;;5009639;28;20169;-51
2021/10/04 04:41:23;;;;;;;6.13;1.92;;;11.50;99.90;;;;;;5011811;28;20076;-51
2021/10/04 04:43:49;;;;;;;5.03;2.10;;;11.50;99.90;;;;;;5009553;28;20504;-52
2021/10/04 04:46:15;;;;;;;5.28;1.95;;;11.50;99.90;;;;;;5012751;28;20117;-51
2021/10/04 04:48:40;;;;;;;5.85;1.90;;;11.60;99.90;;;;;;4993697;28;20049;-51
2021/10/04 04:51:06;;;;;;;8.65;1.90;;;11.60;99.90;;;;;;5010676;28;20153;-51
2021/10/04 04:53:31;;;;;;;5.50;1.90;;;11.60;99.90;;;;;;5010310;28;20049;-50
2021/10/04 04:55:57;;;;;;;5.15;1.83;;;11.50;99.90;;;;;;5010232;28;20459;-51
2021/10/04 04:58:22;;;;;;;5.40;1.95;;;11.60;99.90;;;;;;5010172;28;20465;-50
2021/10/04 05:00:48;;;;;;;5.75;1.70;;;11.60;99.90;;;;;;5007863;28;20490;-50
2021/10/04 05:03:18;;;;;;;5.03;1.73;;;11.60;99.90;;;;;;5015667;28;20041;-52
2021/10/04 05:05:44;;;;;;;6.15;1.80;;;11.60;99.90;;;;;;5011897;28;20072;-49
2021/10/04 05:08:10;;;;;;;6.40;1.70;;;11.70;99.90;;;;;;5012700;28;20102;-51
2021/10/04 05:10:35;;;;;;;6.72;1.95;;;11.70;99.90;;;;;;5013712;28;20042;-52
2021/10/04 05:13:02;;;;;;;8.07;2.00;;;11.60;99.90;;;;;;5011473;28;20120;-51
2021/10/04 05:15:30;;;;;;;4.95;2.00;;;11.60;99.90;;;;;;5011065;28;20507;-51
2021/10/04 05:17:56;;;;;;;6.50;1.80;;;11.60;99.90;;;;;;5014010;28;20088;-51
2021/10/04 05:20:26;;;;;;;4.80;2.00;;;11.60;99.90;;;;;;5013679;28;20247;-50
2021/10/04 05:22:56;;;;;;;6.28;1.88;;;11.60;99.90;;;;;;4994116;28;20041;-51
2021/10/04 05:25:21;;;;;;;3.92;2.00;;;11.60;99.90;;;;;;5013444;28;20401;-55
2021/10/04 05:27:50;;;;;;;9.93;2.00;;;11.60;99.90;;;;;;5015890;28;20572;-51
2021/10/04 05:30:16;;;;;;;8.02;1.90;;;11.60;99.90;;;;;;5014957;28;20406;-50
2021/10/04 05:32:41;;;;;;;6.20;2.08;;;11.60;99.90;;;;;;5012544;28;20041;-49
2021/10/04 05:35:08;;;;;;;5.90;2.17;;;11.60;99.90;;;;;;5012759;28;20037;-51
2021/10/04 05:37:35;;;;;;;6.57;1.80;;;11.60;99.90;;;;;;5011218;28;20120;-49
2021/10/04 05:40:00;;;;;;;8.98;2.00;;;11.60;99.90;;;;;;4990962;28;20038;-50
2021/10/04 05:42:31;;;;;;;5.05;2.35;;;11.60;99.90;;;;;;5005989;28;20036;-50
2021/10/04 05:44:58;;;;;;;6.03;1.90;;;11.50;99.90;;;;;;5007521;28;20046;-50
2021/10/04 05:47:27;;;;;;;7.68;2.33;;;11.60;99.90;;;;;;5007099;28;20049;-53
2021/10/04 05:49:53;;;;;;;5.78;2.08;;;11.50;99.90;;;;;;5014078;28;20049;-49
2021/10/04 05:52:19;;;;;;;7.18;1.98;;;11.60;99.90;;;;;;5014020;28;20030;-49
2021/10/04 05:54:44;;;;;;;5.18;1.80;;;11.50;99.90;;;;;;5015298;28;20091;-50
2021/10/04 05:57:10;;;;;;;6.90;2.00;;;11.50;99.90;;;;;;5008630;28;20501;-51
2021/10/04 05:59:36;;;;;;;6.97;2.00;;;11.60;99.90;;;;;;5012496;28;20045;-50
2021/10/04 06:02:05;;;;;;;4.63;1.83;;;11.60;99.90;;;;;;4996417;28;20111;-50
2021/10/04 06:04:31;;;;;;;5.30;1.90;;;11.60;99.90;;;;;;4985798;28;20074;-52
2021/10/04 06:06:56;;;;;;;5.93;1.70;;;11.60;99.90;;;;;;5005608;28;20088;-52
2021/10/04 06:09:22;;;;;;;6.40;1.75;;;11.60;99.90;;;;;;5005256;28;20045;-48
2021/10/04 06:11:47;;;;;;;4.65;1.50;;;11.70;99.90;;;;;;5004489;28;20049;-51
2021/10/04 06:14:13;;;;;;;11.23;2.63;;;11.70;99.90;;;;;;5011868;28;20044;-48
2021/10/04 06:16:38;;;;;;;10.82;2.20;;;11.70;99.90;;;;;;5012436;28;20053;-50
2021/10/04 06:19:06;;;;;;;6.18;2.20;;;11.80;99.90;;;;;;5010526;28;20052;-49
2021/10/04 06:21:33;;;;;;;4.85;2.05;;;11.80;99.90;;;;;;4980820;28;20495;-50
2021/10/04 06:24:03;;;;;;;6.57;2.40;;;11.70;99.90;;;;;;5014389;28;20045;-51
2021/10/04 06:26:29;;;;;;;10.73;2.38;;;11.70;99.90;;;;;;5007060;28;20038;-48
2021/10/04 06:28:54;;;;;;;6.90;1.98;;;11.70;99.90;;;;;;5009378;28;20046;-48
2021/10/04 06:31:20;;;;;;;8.82;2.28;;;11.70;99.90;;;;;;5011706;28;20087;-49
2021/10/04 06:33:45;;;;;;;7.25;2.45;;;11.70;99.90;;;;;;5013675;28;20477;-48
2021/10/04 06:36:11;;;;;;;5.97;2.10;;;11.70;99.90;;;;;;5013423;28;20038;-48
2021/10/04 06:38:36;;;;;;;6.63;2.20;;;11.80;99.90;;;;;;5013351;28;20054;-51
2021/10/04 06:41:02;;;;;;;8.13;2.20;;;11.70;99.90;;;;;;5007226;28;20032;-51
2021/10/04 06:43:28;;;;;;;8.38;2.38;;;11.80;99.90;;;;;;5013773;28;20073;-53
2021/10/04 06:45:54;;;;;;;5.03;2.00;;;11.70;99.90;;;;;;5007944;28;20137;-51
2021/10/04 06:48:19;;;;;;;5.28;2.10;;;11.70;99.90;;;;;;5007465;28;20121;-49
2021/10/04 06:50:45;;;;;;;9.48;2.50;;;11.80;99.90;;;;;;5011048;28;20112;-51
2021/10/04 06:53:12;;;;;;;8.23;2.22;;;11.70;99.90;;;;;;5010620;28;20109;-52
2021/10/04 06:55:37;;;;;;;8.50;2.17;;;11.70;99.90;;;;;;5010316;28;20509;-50
2021/10/04 06:58:03;;;;;;;7.70;2.20;;;11.60;99.90;;;;;;4999120;28;20042;-52
2021/10/04 07:00:28;;;;;;;3.92;2.03;;;11.80;99.90;;;;;;5009095;28;20185;-52
2021/10/04 07:02:54;;;;;;;8.30;2.17;;;11.70;99.90;;;;;;5003394;28;20402;-50
2021/10/04 07:05:21;;;;;;;7.03;2.20;;;11.80;99.90;;;;;;5004949;28;20454;-51
2021/10/04 07:07:55;;;;;;;8.23;2.00;;;11.80;99.90;;;;;;5012198;28;20042;-50
2021/10/04 07:10:21;;;;;;;7.90;2.63;;;11.80;99.90;;;;;;5008303;28;20491;-50
2021/10/04 07:12:46;;;;;;;6.85;2.53;;;11.80;99.90;;;;;;5005465;28;20624;-52
2021/10/04 07:15:12;;;;;;;9.25;2.30;;;11.80;99.90;;;;;;5010056;28;20037;-50
2021/10/04 07:17:39;;;;;;;3.78;1.90;;;11.80;99.90;;;;;;4990669;28;20374;-54
2021/10/04 07:20:05;;;;;;;9.18;2.03;;;11.90;99.90;;;;;;5004222;28;20041;-53
2021/10/04 07:22:31;;;;;;;4.45;1.90;;;11.90;99.90;;;;;;5010393;28;20569;-53
2021/10/04 07:24:56;;;;;;;9.68;2.05;;;11.80;99.90;;;;;;5009649;28;20072;-54
2021/10/04 07:27:22;;;;;;;5.28;1.83;;;11.90;99.90;;;;;;5010450;28;20073;-54
2021/10/04 07:29:47;;;;;;;7.20;2.15;;;11.90;99.90;;;;;;5007868;28;20120;-52
2021/10/04 07:32:13;;;;;;;5.47;2.00;;;11.90;99.90;;;;;;5005389;28;20042;-52
2021/10/04 07:34:39;;;;;;;8.73;2.25;;;11.90;99.90;;;;;;4996773;28;20046;-55
2021/10/04 07:37:05;;;;;;;5.95;2.10;;;11.90;99.90;;;;;;5010186;28;20045;-54
2021/10/04 07:39:31;;;;;;;4.25;2.00;;;12.00;99.90;;;;;;5008736;28;20457;-54
2021/10/04 07:41:57;;;;;;;8.95;2.72;;;12.00;99.90;;;;;;5007613;28;20038;-53
2021/10/04 07:44:24;;;;;;;8.52;2.40;;;12.00;99.90;;;;;;5005715;28;20125;-55
2021/10/04 07:46:51;;;;;;;7.15;2.25;;;12.00;99.90;;;;;;5009476;28;20125;-54
2021/10/04 07:49:19;;;;;;;6.15;2.20;;;12.00;99.90;;;;;;5005091;28;20060;-54
2021/10/04 07:51:45;;;;;;;10.13;2.30;;;12.00;99.90;;;;;;5001994;28;20038;-54
2021/10/04 07:54:11;;;;;;;6.93;2.30;;;12.00;99.90;;;;;;5000347;28;20514;-55
2021/10/04 07:56:41;;;;;;;6.43;2.30;;;12.10;99.90;;;;;;4999918;28;20498;-55
2021/10/04 07:59:08;;;;;;;8.65;2.20;;;12.10;99.90;;;;;;4999425;28;20050;-50
2021/10/04 08:01:35;;;;;;;5.35;2.10;;;12.10;99.90;;;;;;5004627;28;20043;-54
2021/10/04 08:04:03;;;;;;;4.72;2.13;;;12.10;99.90;;;;;;4999180;28;20552;-52
2021/10/04 08:06:34;;;;;;;6.22;2.28;;;12.20;99.90;;;;;;5012706;28;20088;-55
2021/10/04 08:08:59;;;;;;;15.93;3.78;;;12.20;99.90;;;;;;5014831;28;20134;-55
2021/10/04 08:11:25;;;;;;;4.88;1.98;;;12.30;99.90;;;;;;4991782;28;20146;-54
2021/10/04 08:13:51;;;;;;;7.43;2.10;;;12.30;99.90;;;;;;5012386;28;20065;-54
2021/10/04 08:16:20;;;;;;;8.60;2.00;;;12.30;99.90;;;;;;5004363;28;20089;-54
2021/10/04 08:18:52;;;;;;;8.10;2.17;;;12.30;99.90;;;;;;5010306;28;20046;-54
2021/10/04 08:21:23;;;;;;;5.10;2.00;;;12.30;99.90;;;;;;5012874;28;20376;-55
2021/10/04 08:23:50;;;;;;;6.70;2.28;;;12.40;99.90;;;;;;5007829;28;20116;-55
2021/10/04 08:26:17;;;;;;;6.43;2.33;;;12.40;99.90;;;;;;5003325;28;20569;-55
2021/10/04 08:28:43;;;;;;;5.45;1.75;;;12.40;99.90;;;;;;4977982;28;20403;-54
2021/10/04 08:31:09;;;;;;;6.55;2.00;;;12.40;99.90;;;;;;5011276;28;20044;-54
2021/10/04 08:33:37;;;;;;;4.25;2.20;;;12.50;99.90;;;;;;5012291;28;20475;-52
2021/10/04 08:36:05;;;;;;;9.18;2.65;;;12.50;99.90;;;;;;5012900;28;20033;-55
2021/10/04 08:38:32;;;;;;;6.13;2.25;;;12.70;99.90;;;;;;5010976;28;20065;-55
2021/10/04 08:40:58;;;;;;;5.97;2.35;;;12.90;99.90;;;;;;5012547;28;20056;-54
2021/10/04 08:43:24;;;;;;;7.43;2.70;;;13.00;99.90;;;;;;5013470;28;20509;-53
2021/10/04 08:45:52;;;;;;;5.90;2.40;;;13.10;99.90;;;;;;5011519;28;20033;-53
2021/10/04 08:48:17;;;;;;;9.82;2.88;;;13.30;99.90;;;;;;5011974;28;20088;-53
2021/10/04 08:50:43;;;;;;;9.57;2.67;;;13.40;99.50;;;;;;5014299;28;20100;-51
2021/10/04 08:53:08;;;;;;;6.57;2.38;;;13.50;99.40;;;;;;5009151;28;20413;-50
2021/10/04 08:55:40;;;;;;;5.25;2.22;;;13.60;99.00;;;;;;5012505;28;20143;-54
2021/10/04 08:58:10;;;;;;;7.65;2.10;;;13.70;98.40;;;;;;5010419;28;20158;-54
2021/10/04 09:00:36;;;;;;;6.88;2.40;;;13.80;98.20;;;;;;5011739;28;20034;-54
2021/10/04 09:03:04;;;;;;;7.10;2.78;;;13.90;98.30;;;;;;5012996;28;20030;-51
2021/10/04 09:05:31;;;;;;;6.25;2.20;;;14.00;98.00;;;;;;5013148;28;20029;-54
2021/10/04 09:08:01;;;;;;;7.30;2.28;;;14.10;97.70;;;;;;5009498;28;20053;-54
2021/10/04 09:10:32;;;;;;;6.10;2.50;;;14.20;96.60;;;;;;5004831;28;20040;-50
2021/10/04 09:12:59;;;;;;;5.25;2.20;;;14.30;96.60;;;;;;5000336;28;20561;-52
2021/10/04 09:15:36;;;;;;;6.85;2.47;;;14.30;96.90;;;;;;5009966;28;20552;-53
2021/10/04 09:18:06;;;;;;;10.52;2.47;;;14.40;96.60;;;;;;5007104;28;20433;-53
2021/10/04 09:20:53;;;;;;;5.25;2.03;;;14.50;96.70;;;;;;5010072;28;20038;-52
2021/10/04 09:23:56;;;;;;;6.35;2.00;;;14.50;96.40;;;;;;5008216;28;20080;-53
2021/10/04 09:26:24;;;;;;;10.55;2.30;;;14.60;96.10;;;;;;5008576;28;20556;-53
2021/10/04 09:29:06;;;;;;;6.20;2.00;;;14.70;96.50;;;;;;5009342;28;20524;-54
2021/10/04 09:31:34;;;;;;;5.07;1.85;;;14.80;96.60;;;;;;5011187;28;20516;-53
2021/10/04 09:34:18;;;;;;;8.70;2.00;;;14.90;95.70;;;;;;5011599;28;20413;-55
2021/10/04 09:36:44;;;;;;;5.10;2.20;;;14.90;96.00;;;;;;5006298;28;20038;-55
2021/10/04 09:39:29;;;;;;;6.63;2.17;;;15.00;95.50;;;;;;5013206;28;20050;-56
2021/10/04 09:42:11;;;;;;;7.47;2.70;;;15.10;95.10;;;;;;5010228;28;20184;-55
2021/10/04 09:44:48;;;;;;;6.32;2.53;;;15.20;95.00;;;;;;5010261;28;20037;-55
2021/10/04 09:47:28;;;;;;;8.68;2.10;;;15.30;94.70;;;;;;5015787;28;20494;-55
2021/10/04 09:49:55;;;;;;;10.60;2.30;;;15.30;94.60;;;;;;4998012;28;20042;-55
2021/10/04 09:52:40;;;;;;;5.60;1.90;;;15.40;94.50;;;;;;5015147;28;20486;-55
2021/10/04 09:55:15;;;;;;;6.40;2.35;;;15.40;94.70;;;;;;5008004;28;20087;-55
2021/10/04 09:57:41;;;;;;;10.73;1.95;;;15.50;93.60;;;;;;5010981;28;20069;-54
2021/10/04 10:00:08;;;;;;;10.95;1.88;;;15.60;93.70;;;;;;4996090;28;20046;-52
2021/10/04 10:02:34;;;;;;;4.68;1.90;;;15.60;93.80;;;;;;5013039;28;20399;-55
2021/10/04 10:05:00;;;;;;;7.00;1.90;;;15.60;93.90;;;;;;5011733;28;20046;-54
2021/10/04 10:07:32;;;;;;;6.45;1.90;;;15.70;93.70;;;;;;5015995;28;20045;-54
2021/10/04 10:09:58;;;;;;;11.93;2.17;;;15.70;92.90;;;;;;5014307;28;20053;-54
2021/10/04 10:12:26;;;;;;;7.75;2.03;;;15.70;93.00;;;;;;5013563;28;20285;-53
2021/10/04 10:14:52;;;;;;;5.60;2.05;;;15.80;92.80;;;;;;5013278;28;20081;-55
2021/10/04 10:17:30;;;;;;;7.38;1.90;;;15.80;92.80;;;;;;5013887;28;20104;-53
2021/10/04 10:19:57;;;;;;;6.45;2.05;;;15.80;93.10;;;;;;5015801;28;20038;-54
2021/10/04 10:22:32;;;;;;;9.30;2.00;;;15.80;93.10;;;;;;5010773;28;20054;-52
2021/10/04 10:24:58;;;;;;;6.10;1.60;;;16.00;92.20;;;;;;5012531;28;20042;-52
2021/10/04 10:27:53;;;;;;;7.15;1.95;;;16.00;91.30;;;;;;5009343;28;20388;-52
2021/10/04 10:30:20;;;;;;;6.65;1.98;;;16.00;91.60;;;;;;5002112;28;20046;-52
2021/10/04 10:32:46;;;;;;;4.78;1.50;;;16.00;91.20;;;;;;5013077;28;20057;-53
2021/10/04 10:35:12;;;;;;;7.03;1.60;;;16.10;91.10;;;;;;5013065;28;20034;-54
2021/10/04 10:37:50;;;;;;;6.13;1.50;;;16.10;91.00;;;;;;5011373;28;20048;-54
2021/10/04 10:40:16;;;;;;;7.43;1.45;;;16.20;91.70;;;;;;5007846;28;20073;-55
2021/10/04 10:43:02;;;;;;;5.25;1.55;;;16.20;91.10;;;;;;5003089;28;20104;-55
2021/10/04 10:45:42;;;;;;;6.93;2.00;;;16.30;88.60;;;;;;5000763;28;20025;-55
2021/10/04 10:48:08;;;;;;;11.02;1.80;;;16.30;89.40;;;;;;5005373;28;20077;-56
2021/10/04 10:50:39;;;;;;;7.82;1.45;;;16.30;90.20;;;;;;5011631;28;20414;-56
2021/10/04 10:53:20;;;;;;;5.47;1.52;;;16.30;90.30;;;;;;5004703;28;20049;-55
2021/10/04 10:55:54;;;;;;;7.80;1.70;;;16.30;90.30;;;;;;5013006;28;20034;-55
2021/10/04 10:58:23;;;;;;;5.65;1.95;;;16.40;90.10;;;;;;5007141;28;20038;-55
2021/10/04 11:00:49;;;;;;;6.10;1.45;;;16.40;89.50;;;;;;5011457;28;20042;-55
2021/10/04 11:03:18;;;;;;;5.70;1.50;;;16.40;89.40;;;;;;5009748;28;20040;-55
2021/10/04 11:05:48;;;;;;;7.03;1.90;;;16.40;88.40;;;;;;5001823;28;20042;-55
2021/10/04 11:08:20;;;;;;;3.42;1.40;;;16.50;87.30;;;;;;5005422;28;20042;-55
2021/10/04 11:10:50;;;;;;;6.97;1.67;;;16.50;87.30;;;;;;5004427;28;20046;-55
2021/10/04 11:13:33;;;;;;;3.83;1.40;;;16.50;86.20;;;;;;5013233;28;20075;-56
2021/10/04 11:16:25;;;;;;;7.00;1.58;;;16.50;87.10;;;;;;5003326;28;20047;-56
2021/10/04 11:18:52;;;;;;;4.77;1.67;;;16.60;87.40;;;;;;5002969;28;20045;-54
2021/10/04 11:21:21;;;;;;;6.30;1.60;;;16.60;86.80;;;;;;5011903;28;20034;-55
2021/10/04 11:23:52;;;;;;;8.93;1.52;;;16.60;87.40;;;;;;5010312;28;20143;-53
2021/10/04 11:26:20;;;;;;;8.90;1.70;;;16.60;88.30;;;;;;5004487;28;20069;-55
2021/10/04 11:28:48;;;;;;;7.38;1.50;;;16.70;87.70;;;;;;5013052;28;20053;-55
2021/10/04 11:31:19;;;;;;;7.85;1.70;;;16.80;84.70;;;;;;4994145;28;20116;-54
2021/10/04 11:33:50;;;;;;;6.18;1.70;;;16.80;85.00;;;;;;5003865;28;20038;-55
2021/10/04 11:36:19;;;;;;;11.82;1.92;;;16.80;84.40;;;;;;5006021;28;20059;-55
2021/10/04 11:38:47;;;;;;;4.28;1.30;;;16.70;84.70;;;;;;5006156;28;20511;-56
2021/10/04 11:41:13;;;;;;;3.75;1.33;;;16.80;84.00;;;;;;5011256;28;20429;-55
2021/10/04 11:43:43;;;;;;;5.40;1.30;;;16.80;83.60;;;;;;4998431;28;20570;-55
2021/10/04 11:46:18;;;;;;;5.53;1.70;;;16.80;82.50;;;;;;5002051;28;20026;-55
2021/10/04 11:48:45;;;;;;;5.18;1.60;;;16.90;85.10;;;;;;5010480;28;20125;-53
2021/10/04 11:51:24;;;;;;;7.50;1.60;;;16.80;85.20;;;;;;5006729;28;20034;-55
2021/10/04 11:53:49;;;;;;;6.45;1.98;;;16.90;83.50;;;;;;4993067;28;20145;-54
2021/10/04 11:56:15;;;;;;;5.18;1.50;;;16.90;84.00;;;;;;4998274;28;20042;-53
2021/10/04 11:59:10;;;;;;;5.25;1.33;;;16.90;83.80;;;;;;4994353;28;20046;-53
2021/10/04 12:01:40;;;;;;;4.30;1.23;;;17.00;84.30;;;;;;4993079;28;20073;-55
2021/10/04 12:04:12;;;;;;;5.78;1.48;;;17.00;84.00;;;;;;4995547;28;20045;-53
2021/10/04 12:06:42;;;;;;;7.22;1.60;;;17.00;83.70;;;;;;4996372;28;20038;-53
2021/10/04 12:09:18;;;;;;;7.00;1.30;;;17.10;83.00;;;;;;4998363;28;20042;-55
2021/10/04 12:11:55;;;;;;;5.57;2.22;;;17.10;83.50;;;;;;4999963;28;20078;-53
2021/10/04 12:14:23;;;;;;;7.90;1.85;;;17.10;84.40;;;;;;4995290;28;20041;-54
2021/10/04 12:16:51;;;;;;;4.70;1.48;;;17.10;84.90;;;;;;4999586;28;20046;-53
2021/10/04 12:19:17;;;;;;;8.55;1.80;;;17.20;83.40;;;;;;5002369;28;20085;-52
2021/10/04 12:21:46;;;;;;;6.68;1.55;;;17.20;84.00;;;;;;4997783;28;20129;-54
2021/10/04 12:24:18;;;;;;;7.20;1.73;;;17.20;83.60;;;;;;4995184;28;20050;-56
2021/10/04 12:27:01;;;;;;;;;;;17.20;81.30;;;;;;5002029;28;20516;-55
2021/10/04 12:29:48;;;;;;;11.18;1.58;;;17.20;81.30;;;;;;4996547;28;19926;-51
2021/10/04 12:32:42;;;;;;;5.63;1.33;;;17.20;83.30;;;;;;5000086;28;20093;-55
2021/10/04 12:35:14;;;;;;;7.68;1.50;;;17.20;82.00;;;;;;4999991;28;20042;-55
2021/10/04 12:37:40;;;;;;;;;;;17.20;82.70;;;;;;5004381;28;20050;-54
2021/10/04 12:40:22;;;;;;;3.63;1.20;;;17.20;82.20;;;;;;5001108;28;19921;-54
2021/10/04 12:42:48;;;;;;;4.85;1.33;;;17.20;80.50;;;;;;5011499;28;20034;-55
2021/10/04 12:45:15;;;;;;;6.38;1.20;;;17.20;82.20;;;;;;5004500;28;20421;-55
2021/10/04 12:48:02;;;;;;;4.20;1.25;;;17.20;82.20;;;;;;4984863;28;20044;-54
2021/10/04 12:50:35;;;;;;;3.47;1.13;;;17.30;79.20;;;;;;4998108;28;20042;-53